createdAt,value
2023-07-02T00:02:27.271Z,17.21
2023-07-02T00:05:01.158Z,17.21
2023-07-02T00:07:35.962Z,17.20
2023-07-02T00:10:12.228Z,17.17
2023-07-02T00:12:46.192Z,17.15
2023-07-02T00:15:20.394Z,17.11
2023-07-02T00:17:54.158Z,17.09
2023-07-02T00:20:28.211Z,17.08
2023-07-02T00:23:01.960Z,17.07
2023-07-02T00:25:35.497Z,17.07
2023-07-02T00:28:09.143Z,17.07
2023-07-02T00:30:42.738Z,17.07
2023-07-02T00:33:16.759Z,17.07
2023-07-02T00:35:50.347Z,17.05
2023-07-02T00:38:25.170Z,17.03
2023-07-02T00:40:59.494Z,17.01
2023-07-02T00:43:33.195Z,17.00
2023-07-02T00:46:07.382Z,17.01
2023-07-02T00:48:43.488Z,17.01
2023-07-02T00:51:19.529Z,17.04
2023-07-02T00:53:54.374Z,17.05
2023-07-02T00:56:29.051Z,17.06
2023-07-02T00:59:03.131Z,17.06
2023-07-02T01:01:39.607Z,17.07
2023-07-02T01:04:14.422Z,17.08
2023-07-02T01:06:48.446Z,17.10
2023-07-02T01:09:22.468Z,17.12
2023-07-02T01:12:00.384Z,17.13
2023-07-02T01:14:39.013Z,17.17
2023-07-02T01:17:13.335Z,17.20
2023-07-02T01:19:52.869Z,17.23
2023-07-02T01:22:28.773Z,17.27
2023-07-02T01:25:02.876Z,17.19
2023-07-02T01:27:37.941Z,17.30
2023-07-02T01:30:12.503Z,17.40
2023-07-02T01:32:46.391Z,17.43
2023-07-02T01:35:20.304Z,17.47
2023-07-02T01:37:54.334Z,17.50
2023-07-02T01:40:28.125Z,17.53
2023-07-02T01:43:01.726Z,17.56
2023-07-02T01:45:35.886Z,17.57
2023-07-02T01:48:09.957Z,17.58
2023-07-02T01:50:43.437Z,17.60
2023-07-02T01:53:17.571Z,17.64
2023-07-02T01:55:52.108Z,17.67
2023-07-02T01:58:26.019Z,17.68
2023-07-02T02:01:00.825Z,17.69
2023-07-02T02:03:34.849Z,17.69
2023-07-02T02:06:09.019Z,17.69
2023-07-02T02:08:42.928Z,17.69
2023-07-02T02:11:18.905Z,17.70
2023-07-02T02:13:52.731Z,17.69
2023-07-02T02:16:26.806Z,17.69
2023-07-02T02:19:00.492Z,17.69
2023-07-02T02:21:34.652Z,17.68
2023-07-02T02:24:10.476Z,17.68
2023-07-02T02:26:44.534Z,17.68
2023-07-02T02:29:18.475Z,17.71
2023-07-02T02:31:52.354Z,17.75
2023-07-02T02:34:26.124Z,17.77
2023-07-02T02:36:59.818Z,17.80
2023-07-02T02:39:33.494Z,17.74
2023-07-02T02:42:08.880Z,17.87
2023-07-02T02:44:43.271Z,17.88
2023-07-02T02:47:16.561Z,17.88
2023-07-02T02:49:50.608Z,17.87
2023-07-02T02:52:24.673Z,17.86
2023-07-02T02:54:58.734Z,17.86
2023-07-02T02:57:32.430Z,17.85
2023-07-02T03:00:06.352Z,17.83
2023-07-02T03:02:40.438Z,17.79
2023-07-02T03:05:15.280Z,17.76
2023-07-02T03:07:49.086Z,17.73
2023-07-02T03:10:23.306Z,17.70
2023-07-02T03:12:57.290Z,17.68
2023-07-02T03:15:31.124Z,17.65
2023-07-02T03:18:05.349Z,17.63
2023-07-02T03:20:39.180Z,17.61
2023-07-02T03:23:12.984Z,17.60
2023-07-02T03:25:47.225Z,17.60
2023-07-02T03:28:21.292Z,17.61
2023-07-02T03:30:54.933Z,17.62
2023-07-02T03:33:28.453Z,17.63
2023-07-02T03:36:02.384Z,17.64
2023-07-02T03:38:35.879Z,17.65
2023-07-02T03:41:11.633Z,17.60
2023-07-02T03:43:45.761Z,17.67
2023-07-02T03:46:19.193Z,17.68
2023-07-02T03:48:52.832Z,17.70
2023-07-02T03:51:26.538Z,17.70
2023-07-02T03:54:00.448Z,17.73
2023-07-02T03:56:33.912Z,17.76
2023-07-02T03:59:07.781Z,17.79
2023-07-02T04:01:41.483Z,17.82
2023-07-02T04:04:15.115Z,17.84
2023-07-02T04:06:49.146Z,17.85
2023-07-02T04:09:22.881Z,17.87
2023-07-02T04:11:56.816Z,17.88
2023-07-02T04:14:30.474Z,17.89
2023-07-02T04:17:06.322Z,17.89
2023-07-02T04:19:39.839Z,17.88
2023-07-02T04:22:16.026Z,17.88
2023-07-02T04:24:51.467Z,17.88
2023-07-02T04:27:50.498Z,17.89
2023-07-02T04:30:21.100Z,17.88
2023-07-02T04:32:57.483Z,17.88
2023-07-02T04:35:31.307Z,17.88
2023-07-02T04:38:05.291Z,17.87
2023-07-02T04:40:39.302Z,17.87
2023-07-02T04:43:13.661Z,17.87
2023-07-02T04:45:49.784Z,17.89
2023-07-02T04:48:23.514Z,17.90
2023-07-02T04:50:57.573Z,17.91
2023-07-02T04:53:31.455Z,17.92
2023-07-02T04:56:06.751Z,17.94
2023-07-02T04:58:42.373Z,17.96
2023-07-02T05:01:16.160Z,17.98
2023-07-02T05:03:50.099Z,18.01
2023-07-02T05:06:23.685Z,18.04
2023-07-02T05:08:57.226Z,18.02
2023-07-02T05:11:30.646Z,18.13
2023-07-02T05:14:04.529Z,18.17
2023-07-02T05:16:38.256Z,18.23
2023-07-02T05:19:11.751Z,18.26
2023-07-02T05:21:44.992Z,18.29
2023-07-02T05:24:18.657Z,18.31
2023-07-02T05:26:53.383Z,18.32
2023-07-02T05:29:27.118Z,18.32
2023-07-02T05:32:00.801Z,18.27
2023-07-02T05:34:34.381Z,18.24
2023-07-02T05:37:08.182Z,18.38
2023-07-02T05:39:42.070Z,18.41
2023-07-02T05:42:15.546Z,18.38
2023-07-02T05:44:48.865Z,18.47
2023-07-02T05:47:22.359Z,18.49
2023-07-02T05:49:55.939Z,18.51
2023-07-02T05:52:29.597Z,18.51
2023-07-02T05:55:03.080Z,18.52
2023-07-02T05:57:36.830Z,18.53
2023-07-02T06:00:14.474Z,18.51
2023-07-02T06:02:50.935Z,18.49
2023-07-02T06:05:24.884Z,18.47
2023-07-02T06:07:58.258Z,18.48
2023-07-02T06:10:32.288Z,18.50
2023-07-02T06:13:05.778Z,18.54
2023-07-02T06:15:39.557Z,18.58
2023-07-02T06:18:13.129Z,18.61
2023-07-02T06:20:47.093Z,18.64
2023-07-02T06:23:20.824Z,18.69
2023-07-02T06:26:00.408Z,18.75
2023-07-02T06:28:34.011Z,18.82
2023-07-02T06:31:07.837Z,18.87
2023-07-02T06:33:44.721Z,18.93
2023-07-02T06:36:19.213Z,19.01
2023-07-02T06:38:52.690Z,19.10
2023-07-02T06:41:26.476Z,19.14
2023-07-02T06:44:00.055Z,19.14
2023-07-02T06:46:33.628Z,19.12
2023-07-02T06:49:07.126Z,19.10
2023-07-02T06:51:41.157Z,19.05
2023-07-02T06:54:15.251Z,19.01
2023-07-02T06:56:48.659Z,18.95
2023-07-02T06:59:25.548Z,18.92
2023-07-02T07:01:59.200Z,18.89
2023-07-02T07:04:32.974Z,18.83
2023-07-02T07:07:07.437Z,18.86
2023-07-02T07:09:40.859Z,18.85
2023-07-02T07:12:14.472Z,18.82
2023-07-02T07:14:47.828Z,18.79
2023-07-02T07:17:21.946Z,18.71
2023-07-02T07:19:55.981Z,18.61
2023-07-02T07:22:29.695Z,18.45
2023-07-02T07:25:04.658Z,18.21
2023-07-02T07:27:38.576Z,18.05
2023-07-02T07:30:15.788Z,17.92
2023-07-02T07:32:49.504Z,17.84
2023-07-02T07:35:23.528Z,17.83
2023-07-02T07:37:56.984Z,17.77
2023-07-02T07:40:30.456Z,17.92
2023-07-02T07:43:04.100Z,18.00
2023-07-02T07:45:39.001Z,18.14
2023-07-02T07:48:13.094Z,18.26
2023-07-02T07:50:47.871Z,18.41
2023-07-02T07:53:25.957Z,18.53
2023-07-02T07:56:01.358Z,18.60
2023-07-02T07:58:34.920Z,18.73
2023-07-02T08:01:11.221Z,18.88
2023-07-02T08:03:46.056Z,19.00
2023-07-02T08:06:19.804Z,19.20
2023-07-02T08:08:53.332Z,19.46
2023-07-02T08:11:27.832Z,19.68
2023-07-02T08:14:02.737Z,19.79
2023-07-02T08:16:36.184Z,19.90
2023-07-02T08:19:10.336Z,20.13
2023-07-02T08:21:44.271Z,20.23
2023-07-02T08:24:18.825Z,20.35
2023-07-02T08:26:53.511Z,20.35
2023-07-02T08:29:30.104Z,20.45
2023-07-02T08:32:03.813Z,20.36
2023-07-02T08:34:44.556Z,20.37
2023-07-02T08:37:22.398Z,20.31
2023-07-02T08:40:03.693Z,20.26
2023-07-02T08:42:43.677Z,20.24
2023-07-02T08:45:25.575Z,20.20
2023-07-02T08:48:02.366Z,20.21
2023-07-02T08:50:40.705Z,20.28
2023-07-02T08:53:16.326Z,20.44
2023-07-02T08:55:51.198Z,20.53
2023-07-02T08:58:25.616Z,20.63
2023-07-02T09:01:13.877Z,20.67
2023-07-02T09:03:50.452Z,20.64
2023-07-02T09:06:26.380Z,20.67
2023-07-02T09:09:11.627Z,20.76
2023-07-02T09:11:55.542Z,20.81
2023-07-02T09:14:34.206Z,20.94
2023-07-02T09:17:11.748Z,20.95
2023-07-02T09:19:55.979Z,20.91
2023-07-02T09:22:30.091Z,20.73
2023-07-02T09:25:05.906Z,20.57
2023-07-02T09:27:41.873Z,20.50
2023-07-02T09:30:18.263Z,20.40
2023-07-02T09:32:52.101Z,20.31
2023-07-02T09:35:26.068Z,20.24
2023-07-02T09:37:59.852Z,20.17
2023-07-02T09:40:34.898Z,20.10
2023-07-02T09:43:09.119Z,20.06
2023-07-02T09:45:45.206Z,20.00
2023-07-02T09:48:20.324Z,19.95
2023-07-02T09:50:54.553Z,19.90
2023-07-02T09:53:29.660Z,19.83
2023-07-02T09:56:03.125Z,19.75
2023-07-02T09:58:36.785Z,19.65
2023-07-02T10:01:11.449Z,19.56
2023-07-02T10:03:45.856Z,19.38
2023-07-02T10:06:19.661Z,19.33
2023-07-02T10:09:01.924Z,19.30
2023-07-02T10:11:39.743Z,19.30
2023-07-02T10:14:13.593Z,19.29
2023-07-02T10:17:02.867Z,19.22
2023-07-02T10:19:37.581Z,19.28
2023-07-02T10:22:15.985Z,19.25
2023-07-02T10:25:04.432Z,19.24
2023-07-02T10:27:46.578Z,19.26
2023-07-02T10:30:21.568Z,19.25
2023-07-02T10:32:55.386Z,19.27
2023-07-02T10:35:35.516Z,19.31
2023-07-02T10:38:10.116Z,19.37
2023-07-02T10:40:44.382Z,19.37
2023-07-02T10:43:29.572Z,19.34
2023-07-02T10:46:04.923Z,19.30
2023-07-02T10:48:38.846Z,19.30
2023-07-02T10:51:18.453Z,19.31
2023-07-02T10:54:01.694Z,19.29
2023-07-02T10:56:35.793Z,19.23
2023-07-02T10:59:09.509Z,19.26
2023-07-02T11:01:43.511Z,19.30
2023-07-02T11:04:17.307Z,19.47
2023-07-02T11:06:52.376Z,19.62
2023-07-02T11:09:26.134Z,19.75
2023-07-02T11:12:01.165Z,19.87
2023-07-02T11:14:38.557Z,19.98
2023-07-02T11:17:13.238Z,20.03
2023-07-02T11:19:54.732Z,20.21
2023-07-02T11:22:38.886Z,20.26
2023-07-02T11:25:18.454Z,20.33
2023-07-02T11:27:52.285Z,20.42
2023-07-02T11:30:25.738Z,20.58
2023-07-02T11:32:59.737Z,20.78
2023-07-02T11:35:39.884Z,20.97
2023-07-02T11:38:13.909Z,21.23
2023-07-02T11:40:49.981Z,21.45
2023-07-02T11:43:21.884Z,21.62
2023-07-02T11:45:56.074Z,21.70
2023-07-02T11:48:29.528Z,21.81
2023-07-02T11:51:03.182Z,22.05
2023-07-02T11:53:36.701Z,22.19
2023-07-02T11:56:10.859Z,22.28
2023-07-02T11:58:45.138Z,22.38
2023-07-02T12:01:18.719Z,22.61
2023-07-02T12:03:52.417Z,22.80
2023-07-02T12:06:26.255Z,22.89
2023-07-02T12:09:00.265Z,22.93
2023-07-02T12:11:33.847Z,22.91
2023-07-02T12:14:08.036Z,22.88
2023-07-02T12:16:41.644Z,22.87
2023-07-02T12:19:15.343Z,22.99
2023-07-02T12:21:48.839Z,23.20
2023-07-02T12:24:22.666Z,23.37
2023-07-02T12:26:56.146Z,23.45
2023-07-02T12:29:30.046Z,23.52
2023-07-02T12:32:03.618Z,23.59
2023-07-02T12:34:40.294Z,23.56
2023-07-02T12:37:18.579Z,23.57
2023-07-02T12:39:52.554Z,23.70
2023-07-02T12:42:26.281Z,23.85
2023-07-02T12:45:00.154Z,23.95
2023-07-02T12:47:33.949Z,24.04
2023-07-02T12:50:09.967Z,24.11
2023-07-02T12:52:44.333Z,24.21
2023-07-02T12:55:18.212Z,24.27
2023-07-02T12:57:52.014Z,24.25
2023-07-02T13:00:25.913Z,24.21
2023-07-02T13:03:04.556Z,24.23
2023-07-02T13:05:45.161Z,24.20
2023-07-02T13:08:20.808Z,24.06
2023-07-02T13:10:54.262Z,23.90
2023-07-02T13:13:29.958Z,23.72
2023-07-02T13:16:02.158Z,23.54
2023-07-02T13:18:35.979Z,23.46
2023-07-02T13:21:09.555Z,23.51
2023-07-02T13:23:43.010Z,23.65
2023-07-02T13:26:16.430Z,23.71
2023-07-02T13:28:50.200Z,23.64
2023-07-02T13:31:25.148Z,23.64
2023-07-02T13:33:58.722Z,23.72
2023-07-02T13:36:32.740Z,23.77
2023-07-02T13:39:06.464Z,23.74
2023-07-02T13:41:40.197Z,23.72
2023-07-02T13:44:14.134Z,23.69
2023-07-02T13:46:50.010Z,23.62
2023-07-02T13:49:24.009Z,23.61
2023-07-02T13:51:57.771Z,23.76
2023-07-02T13:54:31.597Z,23.92
2023-07-02T13:57:05.925Z,23.98
2023-07-02T13:59:39.599Z,23.97
2023-07-02T14:02:13.261Z,24.13
2023-07-02T14:04:47.011Z,24.31
2023-07-02T14:07:20.787Z,24.43
2023-07-02T14:09:54.329Z,24.54
2023-07-02T14:12:28.940Z,24.66
2023-07-02T14:15:03.108Z,24.75
2023-07-02T14:17:37.511Z,24.81
2023-07-02T14:20:13.740Z,24.93
2023-07-02T14:22:49.081Z,24.88
2023-07-02T14:25:36.194Z,25.03
2023-07-02T14:28:14.196Z,24.99
2023-07-02T14:30:49.174Z,24.91
2023-07-02T14:33:22.738Z,24.90
2023-07-02T14:35:56.997Z,24.90
2023-07-02T14:38:31.337Z,24.95
2023-07-02T14:41:05.173Z,24.93
2023-07-02T14:43:39.532Z,24.95
2023-07-02T14:46:13.912Z,24.99
2023-07-02T14:48:47.449Z,24.90
2023-07-02T14:51:21.572Z,24.74
2023-07-02T14:53:56.778Z,24.57
2023-07-02T14:56:31.114Z,24.54
2023-07-02T14:59:05.529Z,24.55
2023-07-02T15:01:39.313Z,24.62
2023-07-02T15:04:13.853Z,24.64
2023-07-02T15:06:47.800Z,24.65
2023-07-02T15:09:21.183Z,24.75
2023-07-02T15:11:54.659Z,24.85
2023-07-02T15:14:28.229Z,24.91
2023-07-02T15:17:01.788Z,24.86
2023-07-02T15:19:35.335Z,24.75
2023-07-02T15:22:09.181Z,24.75
2023-07-02T15:24:43.090Z,24.81
2023-07-02T15:27:16.646Z,24.82
2023-07-02T15:29:50.155Z,24.89
2023-07-02T15:32:23.855Z,24.97
2023-07-02T15:34:57.738Z,25.00
2023-07-02T15:37:31.408Z,25.13
2023-07-02T15:40:05.170Z,25.29
2023-07-02T15:42:39.128Z,25.34
2023-07-02T15:45:14.473Z,25.38
2023-07-02T15:47:48.304Z,25.26
2023-07-02T15:50:22.065Z,25.22
2023-07-02T15:52:55.789Z,25.22
2023-07-02T15:55:29.759Z,25.28
2023-07-02T15:58:03.468Z,25.33
2023-07-02T16:00:37.091Z,25.22
2023-07-02T16:03:10.681Z,25.23
2023-07-02T16:05:44.936Z,25.30
2023-07-02T16:08:18.677Z,25.33
2023-07-02T16:10:52.171Z,25.37
2023-07-02T16:13:25.861Z,25.51
2023-07-02T16:15:59.454Z,25.59
2023-07-02T16:18:33.773Z,25.61
2023-07-02T16:21:10.920Z,25.61
2023-07-02T16:23:46.189Z,25.53
2023-07-02T16:26:20.183Z,25.38
2023-07-02T16:28:54.267Z,25.25
2023-07-02T16:31:28.215Z,25.20
2023-07-02T16:34:07.633Z,25.31
2023-07-02T16:36:49.079Z,25.47
2023-07-02T16:39:23.926Z,25.55
2023-07-02T16:42:00.206Z,25.64
2023-07-02T16:44:36.967Z,25.67
2023-07-02T16:47:12.497Z,25.64
2023-07-02T16:49:47.937Z,25.59
2023-07-02T16:52:25.729Z,25.53
2023-07-02T16:55:00.475Z,25.51
2023-07-02T16:57:34.776Z,25.51
2023-07-02T17:00:12.124Z,25.49
2023-07-02T17:02:45.743Z,25.42
2023-07-02T17:05:19.503Z,25.37
2023-07-02T17:07:54.319Z,25.20
2023-07-02T17:10:30.546Z,25.00
2023-07-02T17:13:06.943Z,24.84
2023-07-02T17:15:41.025Z,24.70
2023-07-02T17:18:16.069Z,24.55
2023-07-02T17:20:53.864Z,24.35
2023-07-02T17:23:29.137Z,24.21
2023-07-02T17:26:08.047Z,24.10
2023-07-02T17:28:42.145Z,23.96
2023-07-02T17:31:16.673Z,24.30
2023-07-02T17:33:51.262Z,24.87
2023-07-02T17:36:25.874Z,24.92
2023-07-02T17:39:00.137Z,24.85
2023-07-02T17:41:35.726Z,25.28
2023-07-02T17:44:11.587Z,26.37
2023-07-02T17:46:47.598Z,27.25
2023-07-02T17:49:24.378Z,26.75
2023-07-02T17:51:59.850Z,26.01
2023-07-02T17:54:39.912Z,25.34
2023-07-02T17:57:14.655Z,24.77
2023-07-02T17:59:49.854Z,24.30
2023-07-02T18:02:24.273Z,24.07
2023-07-02T18:04:59.533Z,24.32
2023-07-02T18:07:37.056Z,24.67
2023-07-02T18:10:14.262Z,25.09
2023-07-02T18:12:48.797Z,25.57
2023-07-02T18:15:27.919Z,26.04
2023-07-02T18:18:07.028Z,26.46
2023-07-02T18:20:43.392Z,26.02
2023-07-02T18:23:17.584Z,25.40
2023-07-02T18:26:05.856Z,24.90
2023-07-02T18:28:41.563Z,24.48
2023-07-02T18:31:15.835Z,24.13
2023-07-02T18:33:50.037Z,23.84
2023-07-02T18:36:24.866Z,23.58
2023-07-02T18:38:58.977Z,23.32
2023-07-02T18:41:33.870Z,23.08
2023-07-02T18:44:08.081Z,22.87
2023-07-02T18:46:43.140Z,22.66
2023-07-02T18:49:17.420Z,22.52
2023-07-02T18:51:53.315Z,22.38
2023-07-02T18:54:28.576Z,22.21
2023-07-02T18:57:07.956Z,22.04
2023-07-02T18:59:45.944Z,21.89
2023-07-02T19:02:21.909Z,21.71
2023-07-02T19:04:57.572Z,21.56
2023-07-02T19:07:32.677Z,21.40
2023-07-02T19:10:08.038Z,21.25
2023-07-02T19:12:44.746Z,21.10
2023-07-02T19:15:24.286Z,20.91
2023-07-02T19:18:02.882Z,20.72
2023-07-02T19:20:37.349Z,20.56
2023-07-02T19:23:13.385Z,20.41
2023-07-02T19:25:49.387Z,20.25
2023-07-02T19:28:31.554Z,20.09
2023-07-02T19:31:12.459Z,19.90
2023-07-02T19:33:53.933Z,19.72
2023-07-02T19:36:34.857Z,19.53
2023-07-02T19:39:10.778Z,19.37
2023-07-02T19:41:47.777Z,19.21
2023-07-02T19:44:25.805Z,19.03
2023-07-02T19:47:08.306Z,18.85
2023-07-02T19:49:46.062Z,18.70
2023-07-02T19:52:22.145Z,18.57
2023-07-02T19:54:58.538Z,18.44
2023-07-02T19:57:32.725Z,18.30
2023-07-02T20:00:09.711Z,18.19
2023-07-02T20:02:45.623Z,18.05
2023-07-02T20:05:22.130Z,17.94
2023-07-02T20:07:57.660Z,17.83
2023-07-02T20:10:33.071Z,17.72
2023-07-02T20:13:08.880Z,17.63
2023-07-02T20:18:22.704Z,17.47
2023-07-02T20:21:11.833Z,17.37
2023-07-02T20:23:51.719Z,17.24
2023-07-02T20:26:26.990Z,17.11
2023-07-02T20:29:05.445Z,16.95
2023-07-02T20:31:44.276Z,16.83
2023-07-02T20:34:22.002Z,16.74
2023-07-02T20:36:58.200Z,16.65
2023-07-02T20:39:36.711Z,16.57
2023-07-02T20:42:13.906Z,16.50
2023-07-02T20:44:53.320Z,16.42
2023-07-02T20:47:30.464Z,16.34
2023-07-02T20:50:09.038Z,16.27
2023-07-02T20:52:48.637Z,16.21
2023-07-02T20:55:25.791Z,16.13
2023-07-02T20:58:01.267Z,16.06
2023-07-02T21:00:42.005Z,15.97
2023-07-02T21:03:25.460Z,15.89
2023-07-02T21:06:00.212Z,15.81
2023-07-02T21:08:33.893Z,15.74
2023-07-02T21:11:20.231Z,15.66
2023-07-02T21:13:57.958Z,15.59
2023-07-02T21:16:33.146Z,15.53
2023-07-02T21:19:07.064Z,15.47
2023-07-02T21:21:43.890Z,15.40
2023-07-02T21:24:18.471Z,15.33
2023-07-02T21:26:52.177Z,15.27
2023-07-02T21:29:26.052Z,15.19
2023-07-02T21:32:00.337Z,15.12
2023-07-02T21:34:37.098Z,15.04
2023-07-02T21:37:11.527Z,14.98
2023-07-02T21:39:45.268Z,14.90
2023-07-02T21:42:19.012Z,14.85
2023-07-02T21:44:52.535Z,14.80
2023-07-02T21:47:30.757Z,14.76
2023-07-02T21:50:07.822Z,14.70
2023-07-02T21:52:41.553Z,14.66
2023-07-02T21:55:15.668Z,14.62
2023-07-02T21:57:50.314Z,14.58
2023-07-02T22:00:26.550Z,14.49
2023-07-02T22:03:00.164Z,14.48
2023-07-02T22:05:34.126Z,14.41
2023-07-02T22:08:09.310Z,14.35
2023-07-02T22:10:43.442Z,14.32
2023-07-02T22:13:17.614Z,14.29
2023-07-02T22:15:52.104Z,14.26
2023-07-02T22:18:26.519Z,14.24
2023-07-02T22:21:00.257Z,14.19
2023-07-02T22:23:33.902Z,14.10
2023-07-02T22:26:07.488Z,14.08
2023-07-02T22:28:41.161Z,14.05
2023-07-02T22:31:15.151Z,14.04
2023-07-02T22:33:48.916Z,14.05
2023-07-02T22:36:22.498Z,14.07
2023-07-02T22:38:56.492Z,14.09
2023-07-02T22:41:30.218Z,14.11
2023-07-02T22:44:04.140Z,14.13
2023-07-02T22:46:37.896Z,14.14
2023-07-02T22:49:11.344Z,14.14
2023-07-02T22:51:44.820Z,14.13
2023-07-02T22:54:18.688Z,14.13
2023-07-02T22:56:52.381Z,14.13
2023-07-02T22:59:26.347Z,14.11
2023-07-02T23:02:00.480Z,14.10
2023-07-02T23:04:34.436Z,14.08
2023-07-02T23:07:09.096Z,13.99
2023-07-02T23:09:43.089Z,14.03
2023-07-02T23:12:16.639Z,13.98
2023-07-02T23:14:50.513Z,13.94
2023-07-02T23:17:25.218Z,13.89
2023-07-02T23:19:58.973Z,13.85
2023-07-02T23:22:32.419Z,13.82
2023-07-02T23:25:09.790Z,13.81
2023-07-02T23:27:48.087Z,13.77
2023-07-02T23:30:27.257Z,13.74
2023-07-02T23:33:00.618Z,13.72
2023-07-02T23:35:34.478Z,13.71
2023-07-02T23:38:10.041Z,13.70
2023-07-02T23:40:44.221Z,13.68
2023-07-02T23:43:17.525Z,13.66
2023-07-02T23:45:51.365Z,13.64
2023-07-02T23:48:25.652Z,13.61
2023-07-02T23:50:59.668Z,13.58
2023-07-02T23:53:33.289Z,13.56
2023-07-02T23:56:07.087Z,13.54
2023-07-02T23:58:40.735Z,13.47
